sensor_id;sensor_type;location;lat;lon;timestamp;temperature;humidity
10911;DHT22;5508;49.150;11.030;2022-07-03T00:01:59;11.90;95.60
10911;DHT22;5508;49.150;11.030;2022-07-03T00:05:00;11.80;96.40
10911;DHT22;5508;49.150;11.030;2022-07-03T00:08:00;11.80;96.70
10911;DHT22;5508;49.150;11.030;2022-07-03T00:11:04;11.70;96.60
10911;DHT22;5508;49.150;11.030;2022-07-03T00:14:05;11.70;97.10
10911;DHT22;5508;49.150;11.030;2022-07-03T00:17:05;11.60;97.20
10911;DHT22;5508;49.150;11.030;2022-07-03T00:20:07;11.50;97.70
10911;DHT22;5508;49.150;11.030;2022-07-03T00:23:10;11.50;98.20
10911;DHT22;5508;49.150;11.030;2022-07-03T00:26:11;11.50;98.00
10911;DHT22;5508;49.150;11.030;2022-07-03T00:29:13;11.50;98.00
10911;DHT22;5508;49.150;11.030;2022-07-03T00:32:22;11.50;99.00
10911;DHT22;5508;49.150;11.030;2022-07-03T00:35:23;11.40;99.10
10911;DHT22;5508;49.150;11.030;2022-07-03T00:38:25;11.50;98.70
10911;DHT22;5508;49.150;11.030;2022-07-03T00:41:28;11.40;98.80
10911;DHT22;5508;49.150;11.030;2022-07-03T00:44:29;11.40;98.80
10911;DHT22;5508;49.150;11.030;2022-07-03T00:47:31;11.40;98.70
10911;DHT22;5508;49.150;11.030;2022-07-03T00:50:35;11.30;98.90
10911;DHT22;5508;49.150;11.030;2022-07-03T00:53:36;11.30;99.00
10911;DHT22;5508;49.150;11.030;2022-07-03T00:56:40;11.20;99.00
10911;DHT22;5508;49.150;11.030;2022-07-03T00:59:42;11.10;99.00
10911;DHT22;5508;49.150;11.030;2022-07-03T01:05:54;11.00;99.90
10911;DHT22;5508;49.150;11.030;2022-07-03T01:09:02;10.90;99.90
10911;DHT22;5508;49.150;11.030;2022-07-03T01:12:07;10.90;99.90
10911;DHT22;5508;49.150;11.030;2022-07-03T01:18:49;10.70;99.90
10911;DHT22;5508;49.150;11.030;2022-07-03T01:25:49;10.80;99.90
10911;DHT22;5508;49.150;11.030;2022-07-03T01:28:49;10.80;99.90
10911;DHT22;5508;49.150;11.030;2022-07-03T01:31:51;10.70;99.90
10911;DHT22;5508;49.150;11.030;2022-07-03T01:34:56;10.70;99.90
10911;DHT22;5508;49.150;11.030;2022-07-03T01:38:02;10.70;99.90
10911;DHT22;5508;49.150;11.030;2022-07-03T01:41:06;10.70;99.90
10911;DHT22;5508;49.150;11.030;2022-07-03T01:44:11;10.60;99.90
10911;DHT22;5508;49.150;11.030;2022-07-03T01:47:15;10.70;99.90
10911;DHT22;5508;49.150;11.030;2022-07-03T01:50:16;10.70;99.90
10911;DHT22;5508;49.150;11.030;2022-07-03T01:53:17;10.60;99.90
10911;DHT22;5508;49.150;11.030;2022-07-03T01:56:20;10.50;99.90
10911;DHT22;5508;49.150;11.030;2022-07-03T01:59:21;10.50;99.90
10911;DHT22;5508;49.150;11.030;2022-07-03T02:02:32;10.30;99.90
10911;DHT22;5508;49.150;11.030;2022-07-03T02:08:50;10.20;99.90
10911;DHT22;5508;49.150;11.030;2022-07-03T02:11:54;10.10;99.90
10911;DHT22;5508;49.150;11.030;2022-07-03T02:15:03;10.20;99.90
10911;DHT22;5508;49.150;11.030;2022-07-03T02:18:24;10.20;99.90
10911;DHT22;5508;49.150;11.030;2022-07-03T02:21:28;10.40;99.90
10911;DHT22;5508;49.150;11.030;2022-07-03T02:24:30;10.30;99.90
10911;DHT22;5508;49.150;11.030;2022-07-03T02:27:43;10.30;99.90
10911;DHT22;5508;49.150;11.030;2022-07-03T02:30:49;10.20;99.90
10911;DHT22;5508;49.150;11.030;2022-07-03T02:33:56;10.20;99.90
10911;DHT22;5508;49.150;11.030;2022-07-03T02:37:18;10.20;99.90
10911;DHT22;5508;49.150;11.030;2022-07-03T02:43:59;10.10;99.90
10911;DHT22;5508;49.150;11.030;2022-07-03T02:47:27;10.00;99.90
10911;DHT22;5508;49.150;11.030;2022-07-03T02:50:31;10.00;99.90
10911;DHT22;5508;49.150;11.030;2022-07-03T02:53:42;10.00;99.90
10911;DHT22;5508;49.150;11.030;2022-07-03T02:57:06;10.00;99.90
10911;DHT22;5508;49.150;11.030;2022-07-03T03:00:10;10.10;99.90
10911;DHT22;5508;49.150;11.030;2022-07-03T03:03:11;9.90;99.90
10911;DHT22;5508;49.150;11.030;2022-07-03T03:06:15;10.00;99.90
10911;DHT22;5508;49.150;11.030;2022-07-03T03:09:26;10.10;99.90
10911;DHT22;5508;49.150;11.030;2022-07-03T03:12:31;10.10;99.90
10911;DHT22;5508;49.150;11.030;2022-07-03T03:15:34;10.00;99.90
10911;DHT22;5508;49.150;11.030;2022-07-03T03:18:37;10.00;99.90
10911;DHT22;5508;49.150;11.030;2022-07-03T03:21:49;10.00;99.90
10911;DHT22;5508;49.150;11.030;2022-07-03T03:24:53;10.00;99.90
10911;DHT22;5508;49.150;11.030;2022-07-03T03:27:53;10.10;99.90
10911;DHT22;5508;49.150;11.030;2022-07-03T03:30:54;10.10;99.90
10911;DHT22;5508;49.150;11.030;2022-07-03T03:33:56;10.00;99.90
10911;DHT22;5508;49.150;11.030;2022-07-03T03:36:56;10.00;99.90
10911;DHT22;5508;49.150;11.030;2022-07-03T03:39:58;10.00;99.90
10911;DHT22;5508;49.150;11.030;2022-07-03T03:42:59;10.10;99.90
10911;DHT22;5508;49.150;11.030;2022-07-03T03:46:01;10.10;99.90
10911;DHT22;5508;49.150;11.030;2022-07-03T03:49:02;10.10;99.90
10911;DHT22;5508;49.150;11.030;2022-07-03T03:52:03;10.10;99.90
10911;DHT22;5508;49.150;11.030;2022-07-03T03:55:04;10.20;99.90
10911;DHT22;5508;49.150;11.030;2022-07-03T03:58:04;10.30;99.90
10911;DHT22;5508;49.150;11.030;2022-07-03T04:01:07;10.40;99.90
10911;DHT22;5508;49.150;11.030;2022-07-03T04:04:08;10.60;99.90
10911;DHT22;5508;49.150;11.030;2022-07-03T04:07:08;10.70;99.90
10911;DHT22;5508;49.150;11.030;2022-07-03T04:10:09;10.90;99.90
10911;DHT22;5508;49.150;11.030;2022-07-03T04:13:10;10.90;99.80
10911;DHT22;5508;49.150;11.030;2022-07-03T04:16:10;11.10;99.40
10911;DHT22;5508;49.150;11.030;2022-07-03T04:19:11;11.20;98.20
10911;DHT22;5508;49.150;11.030;2022-07-03T04:22:12;11.30;98.20
10911;DHT22;5508;49.150;11.030;2022-07-03T04:25:12;11.50;97.50
10911;DHT22;5508;49.150;11.030;2022-07-03T04:28:13;11.60;97.00
10911;DHT22;5508;49.150;11.030;2022-07-03T04:31:14;11.70;97.20
10911;DHT22;5508;49.150;11.030;2022-07-03T04:34:14;11.80;98.50
10911;DHT22;5508;49.150;11.030;2022-07-03T04:37:15;12.00;99.70
10911;DHT22;5508;49.150;11.030;2022-07-03T04:40:15;12.10;98.70
10911;DHT22;5508;49.150;11.030;2022-07-03T04:43:16;12.20;96.30
10911;DHT22;5508;49.150;11.030;2022-07-03T04:46:18;12.40;94.80
10911;DHT22;5508;49.150;11.030;2022-07-03T04:49:19;12.60;94.10
10911;DHT22;5508;49.150;11.030;2022-07-03T04:52:19;12.80;95.50
10911;DHT22;5508;49.150;11.030;2022-07-03T04:55:20;12.90;97.20
10911;DHT22;5508;49.150;11.030;2022-07-03T04:58:21;13.10;96.70
10911;DHT22;5508;49.150;11.030;2022-07-03T05:01:21;13.30;95.80
10911;DHT22;5508;49.150;11.030;2022-07-03T05:04:22;13.50;95.40
10911;DHT22;5508;49.150;11.030;2022-07-03T05:07:22;13.80;93.70
10911;DHT22;5508;49.150;11.030;2022-07-03T05:10:23;13.90;93.30
10911;DHT22;5508;49.150;11.030;2022-07-03T05:13:23;14.10;93.50
10911;DHT22;5508;49.150;11.030;2022-07-03T05:16:24;14.30;91.50
10911;DHT22;5508;49.150;11.030;2022-07-03T05:19:25;14.50;91.90
10911;DHT22;5508;49.150;11.030;2022-07-03T05:22:25;14.70;90.40
10911;DHT22;5508;49.150;11.030;2022-07-03T05:25:27;14.80;89.50
10911;DHT22;5508;49.150;11.030;2022-07-03T05:28:28;15.00;89.00
10911;DHT22;5508;49.150;11.030;2022-07-03T05:31:29;15.20;88.00
10911;DHT22;5508;49.150;11.030;2022-07-03T05:34:29;15.40;88.30
10911;DHT22;5508;49.150;11.030;2022-07-03T05:37:30;15.60;87.40
10911;DHT22;5508;49.150;11.030;2022-07-03T05:40:30;15.80;86.00
10911;DHT22;5508;49.150;11.030;2022-07-03T05:43:31;15.90;85.70
10911;DHT22;5508;49.150;11.030;2022-07-03T05:46:31;16.10;84.80
10911;DHT22;5508;49.150;11.030;2022-07-03T05:49:32;16.40;85.60
10911;DHT22;5508;49.150;11.030;2022-07-03T05:52:32;16.50;83.30
10911;DHT22;5508;49.150;11.030;2022-07-03T05:55:33;16.70;82.50
10911;DHT22;5508;49.150;11.030;2022-07-03T05:58:33;16.90;81.90
10911;DHT22;5508;49.150;11.030;2022-07-03T06:01:34;17.10;81.20
10911;DHT22;5508;49.150;11.030;2022-07-03T06:04:35;17.40;79.60
10911;DHT22;5508;49.150;11.030;2022-07-03T06:07:35;17.60;79.30
10911;DHT22;5508;49.150;11.030;2022-07-03T06:10:36;17.90;79.30
10911;DHT22;5508;49.150;11.030;2022-07-03T06:13:36;18.00;78.90
10911;DHT22;5508;49.150;11.030;2022-07-03T06:16:37;18.20;76.50
10911;DHT22;5508;49.150;11.030;2022-07-03T06:19:37;18.40;75.60
10911;DHT22;5508;49.150;11.030;2022-07-03T06:22:40;18.70;74.30
10911;DHT22;5508;49.150;11.030;2022-07-03T06:25:40;18.90;74.30
10911;DHT22;5508;49.150;11.030;2022-07-03T06:28:41;19.10;72.20
10911;DHT22;5508;49.150;11.030;2022-07-03T06:31:42;19.30;71.60
10911;DHT22;5508;49.150;11.030;2022-07-03T06:34:42;19.50;70.90
10911;DHT22;5508;49.150;11.030;2022-07-03T06:37:43;19.50;69.00
10911;DHT22;5508;49.150;11.030;2022-07-03T06:40:44;19.80;69.30
10911;DHT22;5508;49.150;11.030;2022-07-03T06:43:44;20.10;67.00
10911;DHT22;5508;49.150;11.030;2022-07-03T06:46:45;20.30;65.30
10911;DHT22;5508;49.150;11.030;2022-07-03T06:49:45;20.30;66.60
10911;DHT22;5508;49.150;11.030;2022-07-03T06:52:46;20.50;66.20
10911;DHT22;5508;49.150;11.030;2022-07-03T06:55:47;20.60;66.10
10911;DHT22;5508;49.150;11.030;2022-07-03T06:58:47;21.00;66.20
10911;DHT22;5508;49.150;11.030;2022-07-03T07:01:48;21.10;64.80
10911;DHT22;5508;49.150;11.030;2022-07-03T07:04:48;21.30;63.80
10911;DHT22;5508;49.150;11.030;2022-07-03T07:07:49;21.60;63.10
10911;DHT22;5508;49.150;11.030;2022-07-03T07:10:50;21.90;61.30
10911;DHT22;5508;49.150;11.030;2022-07-03T07:13:51;22.00;59.60
10911;DHT22;5508;49.150;11.030;2022-07-03T07:16:51;22.20;60.80
10911;DHT22;5508;49.150;11.030;2022-07-03T07:19:54;22.20;59.30
10911;DHT22;5508;49.150;11.030;2022-07-03T07:22:54;22.40;59.10
10911;DHT22;5508;49.150;11.030;2022-07-03T07:25:55;22.60;58.80
10911;DHT22;5508;49.150;11.030;2022-07-03T07:28:55;22.80;57.70
10911;DHT22;5508;49.150;11.030;2022-07-03T07:31:56;22.90;57.60
10911;DHT22;5508;49.150;11.030;2022-07-03T07:34:56;23.00;56.30
10911;DHT22;5508;49.150;11.030;2022-07-03T07:37:57;23.30;56.40
10911;DHT22;5508;49.150;11.030;2022-07-03T07:40:57;23.40;54.20
10911;DHT22;5508;49.150;11.030;2022-07-03T07:43:58;23.40;54.50
10911;DHT22;5508;49.150;11.030;2022-07-03T07:46:59;23.40;54.00
10911;DHT22;5508;49.150;11.030;2022-07-03T07:50:00;23.60;52.30
10911;DHT22;5508;49.150;11.030;2022-07-03T07:53:00;24.10;51.70
10911;DHT22;5508;49.150;11.030;2022-07-03T07:56:01;24.20;50.00
10911;DHT22;5508;49.150;11.030;2022-07-03T07:59:01;24.30;50.70
10911;DHT22;5508;49.150;11.030;2022-07-03T08:02:02;24.60;49.10
10911;DHT22;5508;49.150;11.030;2022-07-03T08:05:21;24.60;49.80
10911;DHT22;5508;49.150;11.030;2022-07-03T08:08:37;24.70;49.70
10911;DHT22;5508;49.150;11.030;2022-07-03T08:11:37;25.00;50.00
10911;DHT22;5508;49.150;11.030;2022-07-03T08:14:38;25.00;47.80
10911;DHT22;5508;49.150;11.030;2022-07-03T08:17:38;25.40;48.40
10911;DHT22;5508;49.150;11.030;2022-07-03T08:20:39;25.40;47.10
10911;DHT22;5508;49.150;11.030;2022-07-03T08:23:39;25.70;45.40
10911;DHT22;5508;49.150;11.030;2022-07-03T08:26:40;26.00;46.50
10911;DHT22;5508;49.150;11.030;2022-07-03T08:29:40;26.10;46.00
10911;DHT22;5508;49.150;11.030;2022-07-03T08:32:41;26.20;43.80
10911;DHT22;5508;49.150;11.030;2022-07-03T08:35:42;26.00;42.90
10911;DHT22;5508;49.150;11.030;2022-07-03T08:38:42;25.70;43.20
10911;DHT22;5508;49.150;11.030;2022-07-03T08:41:43;25.80;42.70
10911;DHT22;5508;49.150;11.030;2022-07-03T08:44:46;25.70;41.90
10911;DHT22;5508;49.150;11.030;2022-07-03T08:47:48;25.60;43.30
10911;DHT22;5508;49.150;11.030;2022-07-03T08:50:50;25.50;42.50
10911;DHT22;5508;49.150;11.030;2022-07-03T08:53:54;26.00;42.90
10911;DHT22;5508;49.150;11.030;2022-07-03T08:56:55;26.30;41.10
10911;DHT22;5508;49.150;11.030;2022-07-03T08:59:56;26.40;39.70
10911;DHT22;5508;49.150;11.030;2022-07-03T09:02:59;26.50;41.80
10911;DHT22;5508;49.150;11.030;2022-07-03T09:06:00;26.70;40.70
10911;DHT22;5508;49.150;11.030;2022-07-03T09:09:02;26.80;39.60
10911;DHT22;5508;49.150;11.030;2022-07-03T09:12:03;26.90;38.80
10911;DHT22;5508;49.150;11.030;2022-07-03T09:15:06;26.50;39.60
10911;DHT22;5508;49.150;11.030;2022-07-03T09:18:07;26.30;41.00
10911;DHT22;5508;49.150;11.030;2022-07-03T09:21:08;26.60;40.10
10911;DHT22;5508;49.150;11.030;2022-07-03T09:24:10;26.50;40.90
10911;DHT22;5508;49.150;11.030;2022-07-03T09:27:16;26.60;42.10
10911;DHT22;5508;49.150;11.030;2022-07-03T09:30:17;26.90;42.40
10911;DHT22;5508;49.150;11.030;2022-07-03T09:33:21;26.80;40.60
10911;DHT22;5508;49.150;11.030;2022-07-03T09:39:41;26.70;42.50
10911;DHT22;5508;49.150;11.030;2022-07-03T09:42:57;27.00;41.20
10911;DHT22;5508;49.150;11.030;2022-07-03T09:46:03;26.80;39.70
10911;DHT22;5508;49.150;11.030;2022-07-03T09:49:03;26.70;40.00
10911;DHT22;5508;49.150;11.030;2022-07-03T09:52:05;26.70;39.90
10911;DHT22;5508;49.150;11.030;2022-07-03T09:58:10;27.10;39.90
10911;DHT22;5508;49.150;11.030;2022-07-03T10:01:20;27.10;39.40
10911;DHT22;5508;49.150;11.030;2022-07-03T10:04:23;27.00;37.90
10911;DHT22;5508;49.150;11.030;2022-07-03T10:07:23;27.00;38.70
10911;DHT22;5508;49.150;11.030;2022-07-03T10:10:27;27.00;38.90
10911;DHT22;5508;49.150;11.030;2022-07-03T10:13:28;27.00;37.80
10911;DHT22;5508;49.150;11.030;2022-07-03T10:16:28;27.10;37.20
10911;DHT22;5508;49.150;11.030;2022-07-03T10:19:30;26.90;36.80
10911;DHT22;5508;49.150;11.030;2022-07-03T10:22:36;27.10;36.60
10911;DHT22;5508;49.150;11.030;2022-07-03T10:25:42;27.00;37.10
10911;DHT22;5508;49.150;11.030;2022-07-03T10:28:43;27.00;36.60
10911;DHT22;5508;49.150;11.030;2022-07-03T10:31:45;27.00;38.10
10911;DHT22;5508;49.150;11.030;2022-07-03T10:34:48;27.20;35.10
10911;DHT22;5508;49.150;11.030;2022-07-03T10:44:26;27.90;32.40
10911;DHT22;5508;49.150;11.030;2022-07-03T10:47:49;28.10;31.30
10911;DHT22;5508;49.150;11.030;2022-07-03T10:51:13;27.90;32.00
10911;DHT22;5508;49.150;11.030;2022-07-03T10:54:20;28.00;33.90
10911;DHT22;5508;49.150;11.030;2022-07-03T10:57:21;27.80;32.30
10911;DHT22;5508;49.150;11.030;2022-07-03T11:00:22;27.80;31.20
10911;DHT22;5508;49.150;11.030;2022-07-03T11:03:52;28.20;31.50
10911;DHT22;5508;49.150;11.030;2022-07-03T11:13:15;27.90;31.80
10911;DHT22;5508;49.150;11.030;2022-07-03T11:16:22;28.00;33.40
10911;DHT22;5508;49.150;11.030;2022-07-03T11:19:26;28.30;30.90
10911;DHT22;5508;49.150;11.030;2022-07-03T11:23:13;28.30;31.10
10911;DHT22;5508;49.150;11.030;2022-07-03T11:29:27;28.60;31.90
10911;DHT22;5508;49.150;11.030;2022-07-03T11:35:52;28.70;30.40
10911;DHT22;5508;49.150;11.030;2022-07-03T11:42:03;28.60;31.00
10911;DHT22;5508;49.150;11.030;2022-07-03T11:45:04;28.60;30.00
10911;DHT22;5508;49.150;11.030;2022-07-03T11:48:07;28.60;31.60
10911;DHT22;5508;49.150;11.030;2022-07-03T11:51:10;28.60;30.20
10911;DHT22;5508;49.150;11.030;2022-07-03T11:54:11;28.50;31.30
10911;DHT22;5508;49.150;11.030;2022-07-03T11:57:14;28.80;32.50
10911;DHT22;5508;49.150;11.030;2022-07-03T12:00:14;28.80;31.40
10911;DHT22;5508;49.150;11.030;2022-07-03T12:03:21;29.10;31.40
10911;DHT22;5508;49.150;11.030;2022-07-03T12:06:22;29.00;32.50
10911;DHT22;5508;49.150;11.030;2022-07-03T12:12:23;29.40;31.80
10911;DHT22;5508;49.150;11.030;2022-07-03T12:15:25;29.30;29.10
10911;DHT22;5508;49.150;11.030;2022-07-03T12:18:26;29.20;30.70
10911;DHT22;5508;49.150;11.030;2022-07-03T12:21:35;29.10;30.40
10911;DHT22;5508;49.150;11.030;2022-07-03T12:24:36;29.20;31.20
10911;DHT22;5508;49.150;11.030;2022-07-03T12:27:39;29.30;31.50
10911;DHT22;5508;49.150;11.030;2022-07-03T12:30:40;29.30;30.10
10911;DHT22;5508;49.150;11.030;2022-07-03T12:33:40;29.20;29.10
10911;DHT22;5508;49.150;11.030;2022-07-03T12:36:59;29.30;30.40
10911;DHT22;5508;49.150;11.030;2022-07-03T12:40:00;29.40;31.10
10911;DHT22;5508;49.150;11.030;2022-07-03T12:43:01;29.60;30.20
10911;DHT22;5508;49.150;11.030;2022-07-03T12:46:02;29.50;29.70
10911;DHT22;5508;49.150;11.030;2022-07-03T12:49:10;29.50;29.30
10911;DHT22;5508;49.150;11.030;2022-07-03T12:52:12;29.40;31.40
10911;DHT22;5508;49.150;11.030;2022-07-03T12:55:22;29.40;31.00
10911;DHT22;5508;49.150;11.030;2022-07-03T12:58:23;29.20;30.90
10911;DHT22;5508;49.150;11.030;2022-07-03T13:01:43;29.20;30.20
10911;DHT22;5508;49.150;11.030;2022-07-03T13:04:44;29.40;30.90
10911;DHT22;5508;49.150;11.030;2022-07-03T13:07:51;29.70;29.50
10911;DHT22;5508;49.150;11.030;2022-07-03T13:10:56;29.40;28.60
10911;DHT22;5508;49.150;11.030;2022-07-03T13:14:07;29.40;30.10
10911;DHT22;5508;49.150;11.030;2022-07-03T13:17:08;29.50;28.80
10911;DHT22;5508;49.150;11.030;2022-07-03T13:20:09;29.60;27.90
10911;DHT22;5508;49.150;11.030;2022-07-03T13:23:09;29.70;27.50
10911;DHT22;5508;49.150;11.030;2022-07-03T13:26:10;29.60;25.60
10911;DHT22;5508;49.150;11.030;2022-07-03T13:29:11;29.70;26.20
10911;DHT22;5508;49.150;11.030;2022-07-03T13:32:11;29.60;28.70
10911;DHT22;5508;49.150;11.030;2022-07-03T13:35:12;29.50;28.00
10911;DHT22;5508;49.150;11.030;2022-07-03T13:38:12;29.40;27.60
10911;DHT22;5508;49.150;11.030;2022-07-03T13:41:13;29.50;28.60
10911;DHT22;5508;49.150;11.030;2022-07-03T13:44:14;29.30;27.10
10911;DHT22;5508;49.150;11.030;2022-07-03T13:47:14;29.30;26.30
10911;DHT22;5508;49.150;11.030;2022-07-03T13:50:15;29.30;27.80
10911;DHT22;5508;49.150;11.030;2022-07-03T13:53:16;29.40;27.20
10911;DHT22;5508;49.150;11.030;2022-07-03T13:56:17;29.60;26.20
10911;DHT22;5508;49.150;11.030;2022-07-03T13:59:18;29.80;27.10
10911;DHT22;5508;49.150;11.030;2022-07-03T14:02:19;29.80;25.10
10911;DHT22;5508;49.150;11.030;2022-07-03T14:05:20;29.70;25.50
10911;DHT22;5508;49.150;11.030;2022-07-03T14:08:20;29.70;25.40
10911;DHT22;5508;49.150;11.030;2022-07-03T14:11:21;29.80;25.60
10911;DHT22;5508;49.150;11.030;2022-07-03T14:14:21;29.70;25.30
10911;DHT22;5508;49.150;11.030;2022-07-03T14:17:22;29.80;25.20
10911;DHT22;5508;49.150;11.030;2022-07-03T14:20:23;29.90;25.10
10911;DHT22;5508;49.150;11.030;2022-07-03T14:23:23;29.80;25.40
10911;DHT22;5508;49.150;11.030;2022-07-03T14:26:26;29.80;25.60
10911;DHT22;5508;49.150;11.030;2022-07-03T14:29:45;29.80;25.80
10911;DHT22;5508;49.150;11.030;2022-07-03T14:33:04;29.70;26.40
10911;DHT22;5508;49.150;11.030;2022-07-03T14:36:05;29.80;26.00
10911;DHT22;5508;49.150;11.030;2022-07-03T14:39:05;29.80;25.70
10911;DHT22;5508;49.150;11.030;2022-07-03T14:42:06;29.90;25.70
10911;DHT22;5508;49.150;11.030;2022-07-03T14:45:07;30.00;26.40
10911;DHT22;5508;49.150;11.030;2022-07-03T14:48:08;29.90;26.10
10911;DHT22;5508;49.150;11.030;2022-07-03T14:51:09;29.90;27.00
10911;DHT22;5508;49.150;11.030;2022-07-03T14:54:10;29.80;27.60
10911;DHT22;5508;49.150;11.030;2022-07-03T14:57:23;30.20;27.30
10911;DHT22;5508;49.150;11.030;2022-07-03T15:00:26;30.20;27.60
10911;DHT22;5508;49.150;11.030;2022-07-03T15:03:32;30.40;26.90
10911;DHT22;5508;49.150;11.030;2022-07-03T15:06:33;30.60;26.90
10911;DHT22;5508;49.150;11.030;2022-07-03T15:09:37;30.70;26.60
10911;DHT22;5508;49.150;11.030;2022-07-03T15:12:41;30.60;27.00
10911;DHT22;5508;49.150;11.030;2022-07-03T15:15:45;30.50;26.20
10911;DHT22;5508;49.150;11.030;2022-07-03T15:18:46;30.20;27.10
10911;DHT22;5508;49.150;11.030;2022-07-03T15:21:48;30.20;27.60
10911;DHT22;5508;49.150;11.030;2022-07-03T15:24:51;30.50;27.80
10911;DHT22;5508;49.150;11.030;2022-07-03T15:27:53;30.70;27.40
10911;DHT22;5508;49.150;11.030;2022-07-03T15:30:55;30.50;24.70
10911;DHT22;5508;49.150;11.030;2022-07-03T15:33:56;30.30;24.70
10911;DHT22;5508;49.150;11.030;2022-07-03T15:40:15;29.60;25.10
10911;DHT22;5508;49.150;11.030;2022-07-03T15:46:49;29.50;24.80
10911;DHT22;5508;49.150;11.030;2022-07-03T15:49:57;29.60;24.80
10911;DHT22;5508;49.150;11.030;2022-07-03T15:53:03;29.50;24.70
10911;DHT22;5508;49.150;11.030;2022-07-03T15:56:06;29.50;25.20
10911;DHT22;5508;49.150;11.030;2022-07-03T15:59:12;29.30;24.20
10911;DHT22;5508;49.150;11.030;2022-07-03T16:02:20;29.30;26.30
10911;DHT22;5508;49.150;11.030;2022-07-03T16:05:31;29.30;25.30
10911;DHT22;5508;49.150;11.030;2022-07-03T16:08:33;29.30;23.60
10911;DHT22;5508;49.150;11.030;2022-07-03T16:11:35;29.40;24.00
10911;DHT22;5508;49.150;11.030;2022-07-03T16:14:36;29.20;24.40
10911;DHT22;5508;49.150;11.030;2022-07-03T16:17:37;29.10;25.30
10911;DHT22;5508;49.150;11.030;2022-07-03T16:20:37;29.20;25.40
10911;DHT22;5508;49.150;11.030;2022-07-03T16:23:39;29.40;25.20
10911;DHT22;5508;49.150;11.030;2022-07-03T16:26:39;29.60;24.80
10911;DHT22;5508;49.150;11.030;2022-07-03T16:29:41;29.60;25.30
10911;DHT22;5508;49.150;11.030;2022-07-03T16:32:43;29.30;25.00
10911;DHT22;5508;49.150;11.030;2022-07-03T16:35:46;29.60;24.50
10911;DHT22;5508;49.150;11.030;2022-07-03T16:39:01;29.70;25.20
10911;DHT22;5508;49.150;11.030;2022-07-03T16:42:05;30.10;24.30
10911;DHT22;5508;49.150;11.030;2022-07-03T16:45:08;30.40;22.90
10911;DHT22;5508;49.150;11.030;2022-07-03T16:48:14;30.50;23.70
10911;DHT22;5508;49.150;11.030;2022-07-03T16:51:17;30.10;24.30
10911;DHT22;5508;49.150;11.030;2022-07-03T16:54:19;29.70;25.00
10911;DHT22;5508;49.150;11.030;2022-07-03T16:57:21;29.40;26.20
10911;DHT22;5508;49.150;11.030;2022-07-03T17:00:23;29.30;25.50
10911;DHT22;5508;49.150;11.030;2022-07-03T17:03:24;29.10;25.70
10911;DHT22;5508;49.150;11.030;2022-07-03T17:06:26;28.90;25.60
10911;DHT22;5508;49.150;11.030;2022-07-03T17:09:27;28.90;25.70
10911;DHT22;5508;49.150;11.030;2022-07-03T17:12:28;28.70;25.70
10911;DHT22;5508;49.150;11.030;2022-07-03T17:15:29;28.50;26.20
10911;DHT22;5508;49.150;11.030;2022-07-03T17:18:40;28.30;27.60
10911;DHT22;5508;49.150;11.030;2022-07-03T17:21:44;28.20;28.20
10911;DHT22;5508;49.150;11.030;2022-07-03T17:24:48;28.10;27.70
10911;DHT22;5508;49.150;11.030;2022-07-03T17:28:01;28.00;27.70
10911;DHT22;5508;49.150;11.030;2022-07-03T17:31:04;27.80;28.60
10911;DHT22;5508;49.150;11.030;2022-07-03T17:34:08;27.60;29.60
10911;DHT22;5508;49.150;11.030;2022-07-03T17:37:10;27.50;29.10
10911;DHT22;5508;49.150;11.030;2022-07-03T17:40:13;27.40;29.20
10911;DHT22;5508;49.150;11.030;2022-07-03T17:43:14;27.30;29.70
10911;DHT22;5508;49.150;11.030;2022-07-03T17:46:15;27.20;29.90
10911;DHT22;5508;49.150;11.030;2022-07-03T17:49:19;27.10;30.30
10911;DHT22;5508;49.150;11.030;2022-07-03T17:52:23;27.00;30.70
10911;DHT22;5508;49.150;11.030;2022-07-03T17:55:25;26.90;30.00
10911;DHT22;5508;49.150;11.030;2022-07-03T17:58:27;26.80;30.80
10911;DHT22;5508;49.150;11.030;2022-07-03T18:01:28;26.70;31.80
10911;DHT22;5508;49.150;11.030;2022-07-03T18:04:30;26.60;31.20
10911;DHT22;5508;49.150;11.030;2022-07-03T18:11:21;26.30;34.20
10911;DHT22;5508;49.150;11.030;2022-07-03T18:14:38;26.10;32.90
10911;DHT22;5508;49.150;11.030;2022-07-03T18:17:45;26.00;34.80
10911;DHT22;5508;49.150;11.030;2022-07-03T18:20:47;25.90;34.60
10911;DHT22;5508;49.150;11.030;2022-07-03T18:23:50;25.70;35.30
10911;DHT22;5508;49.150;11.030;2022-07-03T18:26:54;25.50;36.20
10911;DHT22;5508;49.150;11.030;2022-07-03T18:29:58;25.40;35.80
10911;DHT22;5508;49.150;11.030;2022-07-03T18:33:00;25.30;36.80
10911;DHT22;5508;49.150;11.030;2022-07-03T18:36:01;25.10;37.10
10911;DHT22;5508;49.150;11.030;2022-07-03T18:39:03;25.00;37.20
10911;DHT22;5508;49.150;11.030;2022-07-03T18:42:05;24.90;37.10
10911;DHT22;5508;49.150;11.030;2022-07-03T18:45:07;24.80;38.00
10911;DHT22;5508;49.150;11.030;2022-07-03T18:48:07;24.60;38.70
10911;DHT22;5508;49.150;11.030;2022-07-03T18:51:19;24.50;40.10
10911;DHT22;5508;49.150;11.030;2022-07-03T18:57:25;24.10;40.80
10911;DHT22;5508;49.150;11.030;2022-07-03T19:00:32;24.00;40.90
10911;DHT22;5508;49.150;11.030;2022-07-03T19:07:09;23.60;43.60
10911;DHT22;5508;49.150;11.030;2022-07-03T19:10:11;23.50;45.50
10911;DHT22;5508;49.150;11.030;2022-07-03T19:13:12;23.40;45.80
10911;DHT22;5508;49.150;11.030;2022-07-03T19:16:15;23.20;46.40
10911;DHT22;5508;49.150;11.030;2022-07-03T19:19:16;23.00;47.60
10911;DHT22;5508;49.150;11.030;2022-07-03T19:22:17;22.90;48.70
10911;DHT22;5508;49.150;11.030;2022-07-03T19:25:18;22.70;48.40
10911;DHT22;5508;49.150;11.030;2022-07-03T19:28:19;22.60;49.80
10911;DHT22;5508;49.150;11.030;2022-07-03T19:31:24;22.50;48.60
10911;DHT22;5508;49.150;11.030;2022-07-03T19:34:25;22.30;49.20
10911;DHT22;5508;49.150;11.030;2022-07-03T19:37:25;22.20;49.70
10911;DHT22;5508;49.150;11.030;2022-07-03T19:40:26;22.10;49.90
10911;DHT22;5508;49.150;11.030;2022-07-03T19:43:28;22.00;50.50
10911;DHT22;5508;49.150;11.030;2022-07-03T19:46:29;21.80;50.60
10911;DHT22;5508;49.150;11.030;2022-07-03T19:49:30;21.70;51.20
10911;DHT22;5508;49.150;11.030;2022-07-03T19:52:30;21.40;53.60
10911;DHT22;5508;49.150;11.030;2022-07-03T19:55:31;21.30;53.30
10911;DHT22;5508;49.150;11.030;2022-07-03T19:58:32;21.10;53.30
10911;DHT22;5508;49.150;11.030;2022-07-03T20:01:33;21.10;53.70
10911;DHT22;5508;49.150;11.030;2022-07-03T20:04:34;21.00;53.90
10911;DHT22;5508;49.150;11.030;2022-07-03T20:07:35;20.90;54.70
10911;DHT22;5508;49.150;11.030;2022-07-03T20:10:35;20.70;55.70
10911;DHT22;5508;49.150;11.030;2022-07-03T20:13:36;20.60;55.60
10911;DHT22;5508;49.150;11.030;2022-07-03T20:16:36;20.50;55.70
10911;DHT22;5508;49.150;11.030;2022-07-03T20:19:37;20.40;55.80
10911;DHT22;5508;49.150;11.030;2022-07-03T20:22:38;20.30;56.30